TimeEET,TemperatureF,Dew PointF,Humidity,Sea Level PressureIn,VisibilityMPH,Wind Direction,Wind SpeedMPH,Gust SpeedMPH,PrecipitationIn,Events,Conditions,WindDirDegrees,DateUTC
12:50 AM,30.2,23.0,75,29.95,-9999.0,WSW,5.8,-,N/A,,Clear,240,2013-03-09 22:50:00
1:50 AM,26.6,23.0,86,29.95,-9999.0,SW,5.8,-,N/A,,Clear,230,2013-03-09 23:50:00
2:00 AM,27,23,79,30.01,6,SW,5.8,,,,,230,2013-03-10 00:00:00
2:50 AM,28.4,23.0,80,29.95,-9999.0,West,3.5,-,N/A,,Clear,270,2013-03-10 00:50:00
3:50 AM,26.6,23.0,86,29.95,-9999.0,West,4.6,-,N/A,,Clear,280,2013-03-10 01:50:00
4:50 AM,28.4,24.8,86,29.98,-9999.0,West,6.9,-,N/A,,Clear,260,2013-03-10 02:50:00
5:50 AM,30.2,24.8,80,29.95,-9999.0,West,3.5,-,N/A,,Clear,270,2013-03-10 03:50:00
6:50 AM,32.0,26.6,80,29.98,-9999.0,South,2.3,-,N/A,,Clear,190,2013-03-10 04:50:00
7:50 AM,41.0,28.4,61,29.98,6.2,East,3.5,-,N/A,,Scattered Clouds,100,2013-03-10 05:50:00
8:00 AM,40,29,53,30.04,12,East,3.5,,,,Scattered Clouds,100,2013-03-10 06:00:00
8:50 AM,42.8,28.4,57,29.98,6.2,ENE,4.6,-,N/A,,Scattered Clouds,70,2013-03-10 06:50:00
9:50 AM,46.4,26.6,46,29.98,6.2,East,5.8,-,N/A,,Scattered Clouds,90,2013-03-10 07:50:00
10:50 AM,50.0,26.6,40,29.95,6.2,East,5.8,-,N/A,,Scattered Clouds,90,2013-03-10 08:50:00
11:50 AM,53.6,26.6,35,29.92,6.2,ENE,4.6,-,N/A,,Scattered Clouds,70,2013-03-10 09:50:00
12:50 PM,53.6,28.4,38,29.89,6.2,East,4.6,-,N/A,,Scattered Clouds,90,2013-03-10 10:50:00
1:50 PM,55.4,30.2,38,29.89,6.2,ESE,6.9,-,N/A,,Scattered Clouds,110,2013-03-10 11:50:00
2:00 PM,56,29,24,29.92,12,ESE,6.9,,,,Scattered Clouds,110,2013-03-10 12:00:00
2:50 PM,57.2,28.4,33,29.86,6.2,ENE,5.8,-,N/A,,Scattered Clouds,70,2013-03-10 12:50:00
3:50 PM,55.4,28.4,36,29.86,6.2,ENE,6.9,-,N/A,,Scattered Clouds,60,2013-03-10 13:50:00
4:50 PM,53.6,28.4,38,29.86,6.2,NE,5.8,-,N/A,,Scattered Clouds,50,2013-03-10 14:50:00
5:50 PM,50.0,30.2,47,29.89,6.2,NE,5.8,-,N/A,,Partly Cloudy,50,2013-03-10 15:50:00
6:50 PM,48.2,28.4,46,29.89,6.2,NW,4.6,-,N/A,,Partly Cloudy,310,2013-03-10 16:50:00
7:50 PM,39.2,28.4,65,29.92,-9999.0,SW,8.1,-,N/A,,Clear,220,2013-03-10 17:50:00
8:00 PM,39,29,57,29.96,12,SW,8.1,,,,,220,2013-03-10 18:00:00
8:50 PM,37.4,28.4,70,29.92,-9999.0,WSW,5.8,-,N/A,,Clear,240,2013-03-10 18:50:00
9:50 PM,35.6,28.4,75,29.92,-9999.0,WSW,6.9,-,N/A,,Clear,240,2013-03-10 19:50:00
10:50 PM,33.8,28.4,81,29.92,-9999.0,SW,6.9,-,N/A,,Clear,220,2013-03-10 20:50:00
11:50 PM,35.6,28.4,75,29.92,-9999.0,West,4.6,-,N/A,,Clear,280,2013-03-10 21:50:00